sensor_id;sensor_type;location;lat;lon;timestamp;temperature;humidity
69626;DHT22;56847;51.984;5.088;2023-11-21T00:02:22;10.50;81.50
69626;DHT22;56847;51.984;5.088;2023-11-21T00:04:49;10.50;81.40
69626;DHT22;56847;51.984;5.088;2023-11-21T00:07:16;10.40;81.50
69626;DHT22;56847;51.984;5.088;2023-11-21T00:09:43;10.40;81.60
69626;DHT22;56847;51.984;5.088;2023-11-21T00:12:10;10.40;81.70
69626;DHT22;56847;51.984;5.088;2023-11-21T00:14:37;10.40;81.70
69626;DHT22;56847;51.984;5.088;2023-11-21T00:17:05;10.40;81.90
69626;DHT22;56847;51.984;5.088;2023-11-21T00:19:32;10.40;82.10
69626;DHT22;56847;51.984;5.088;2023-11-21T00:22:02;10.40;82.20
69626;DHT22;56847;51.984;5.088;2023-11-21T00:24:29;10.40;82.30
69626;DHT22;56847;51.984;5.088;2023-11-21T00:26:57;10.40;82.20
69626;DHT22;56847;51.984;5.088;2023-11-21T00:29:23;10.40;82.30
69626;DHT22;56847;51.984;5.088;2023-11-21T00:31:50;10.40;82.20
69626;DHT22;56847;51.984;5.088;2023-11-21T00:34:17;10.40;82.20
69626;DHT22;56847;51.984;5.088;2023-11-21T00:36:44;10.40;82.20
69626;DHT22;56847;51.984;5.088;2023-11-21T00:39:11;10.40;82.10
69626;DHT22;56847;51.984;5.088;2023-11-21T00:41:39;10.40;82.10
69626;DHT22;56847;51.984;5.088;2023-11-21T00:44:06;10.40;82.00
69626;DHT22;56847;51.984;5.088;2023-11-21T00:46:33;10.40;81.90
69626;DHT22;56847;51.984;5.088;2023-11-21T00:49:00;10.40;82.00
69626;DHT22;56847;51.984;5.088;2023-11-21T00:51:27;10.40;82.00
69626;DHT22;56847;51.984;5.088;2023-11-21T00:53:54;10.40;82.10
69626;DHT22;56847;51.984;5.088;2023-11-21T00:56:21;10.40;82.00
69626;DHT22;56847;51.984;5.088;2023-11-21T00:58:49;10.40;81.80
69626;DHT22;56847;51.984;5.088;2023-11-21T01:01:19;10.40;81.70
69626;DHT22;56847;51.984;5.088;2023-11-21T01:03:46;10.40;81.70
69626;DHT22;56847;51.984;5.088;2023-11-21T01:06:14;10.40;81.70
69626;DHT22;56847;51.984;5.088;2023-11-21T01:08:43;10.40;81.60
69626;DHT22;56847;51.984;5.088;2023-11-21T01:11:10;10.40;81.50
69626;DHT22;56847;51.984;5.088;2023-11-21T01:13:39;10.40;81.40
69626;DHT22;56847;51.984;5.088;2023-11-21T01:16:07;10.40;81.40
69626;DHT22;56847;51.984;5.088;2023-11-21T01:18:37;10.30;81.40
69626;DHT22;56847;51.984;5.088;2023-11-21T01:21:05;10.30;81.40
69626;DHT22;56847;51.984;5.088;2023-11-21T01:23:32;10.30;81.40
69626;DHT22;56847;51.984;5.088;2023-11-21T01:25:59;10.20;81.40
69626;DHT22;56847;51.984;5.088;2023-11-21T01:28:26;10.20;81.30
69626;DHT22;56847;51.984;5.088;2023-11-21T01:30:53;10.20;81.30
69626;DHT22;56847;51.984;5.088;2023-11-21T01:33:23;10.20;81.20
69626;DHT22;56847;51.984;5.088;2023-11-21T01:35:51;10.10;81.20
69626;DHT22;56847;51.984;5.088;2023-11-21T01:38:21;10.10;81.20
69626;DHT22;56847;51.984;5.088;2023-11-21T01:40:48;10.10;81.20
69626;DHT22;56847;51.984;5.088;2023-11-21T01:43:16;10.10;81.20
69626;DHT22;56847;51.984;5.088;2023-11-21T01:45:44;10.10;81.20
69626;DHT22;56847;51.984;5.088;2023-11-21T01:48:13;10.10;81.20
69626;DHT22;56847;51.984;5.088;2023-11-21T01:50:40;10.10;81.30
69626;DHT22;56847;51.984;5.088;2023-11-21T01:53:08;10.10;81.40
69626;DHT22;56847;51.984;5.088;2023-11-21T01:55:35;10.10;81.50
69626;DHT22;56847;51.984;5.088;2023-11-21T01:58:02;10.10;81.70
69626;DHT22;56847;51.984;5.088;2023-11-21T02:00:30;10.10;82.00
69626;DHT22;56847;51.984;5.088;2023-11-21T02:02:58;10.10;82.10
69626;DHT22;56847;51.984;5.088;2023-11-21T02:05:26;10.20;82.30
69626;DHT22;56847;51.984;5.088;2023-11-21T02:07:53;10.30;82.40
69626;DHT22;56847;51.984;5.088;2023-11-21T02:10:20;10.30;82.50
69626;DHT22;56847;51.984;5.088;2023-11-21T02:12:51;10.40;82.50
69626;DHT22;56847;51.984;5.088;2023-11-21T02:15:19;10.40;82.60
69626;DHT22;56847;51.984;5.088;2023-11-21T02:17:53;10.50;82.60
69626;DHT22;56847;51.984;5.088;2023-11-21T02:20:22;10.50;82.70
69626;DHT22;56847;51.984;5.088;2023-11-21T02:22:56;10.60;82.80
69626;DHT22;56847;51.984;5.088;2023-11-21T02:25:29;10.70;82.80
69626;DHT22;56847;51.984;5.088;2023-11-21T02:27:59;10.70;82.90
69626;DHT22;56847;51.984;5.088;2023-11-21T02:30:26;10.80;82.90
69626;DHT22;56847;51.984;5.088;2023-11-21T02:32:54;10.80;82.80
69626;DHT22;56847;51.984;5.088;2023-11-21T02:35:25;10.80;82.90
69626;DHT22;56847;51.984;5.088;2023-11-21T02:37:54;10.90;83.00
69626;DHT22;56847;51.984;5.088;2023-11-21T02:40:22;10.90;83.00
69626;DHT22;56847;51.984;5.088;2023-11-21T02:42:51;11.00;82.90
69626;DHT22;56847;51.984;5.088;2023-11-21T02:45:22;11.00;82.90
69626;DHT22;56847;51.984;5.088;2023-11-21T02:47:50;11.10;82.90
69626;DHT22;56847;51.984;5.088;2023-11-21T02:50:17;11.10;82.90
69626;DHT22;56847;51.984;5.088;2023-11-21T02:52:46;11.10;82.90
69626;DHT22;56847;51.984;5.088;2023-11-21T02:55:13;11.10;82.80
69626;DHT22;56847;51.984;5.088;2023-11-21T02:57:40;11.10;82.80
69626;DHT22;56847;51.984;5.088;2023-11-21T03:00:08;11.10;82.90
69626;DHT22;56847;51.984;5.088;2023-11-21T03:02:36;11.20;82.90
69626;DHT22;56847;51.984;5.088;2023-11-21T03:05:16;11.20;83.00
69626;DHT22;56847;51.984;5.088;2023-11-21T03:07:45;11.20;83.00
69626;DHT22;56847;51.984;5.088;2023-11-21T03:10:12;11.20;83.00
69626;DHT22;56847;51.984;5.088;2023-11-21T03:12:40;11.20;82.90
69626;DHT22;56847;51.984;5.088;2023-11-21T03:15:10;11.30;82.90
69626;DHT22;56847;51.984;5.088;2023-11-21T03:17:37;11.30;83.00
69626;DHT22;56847;51.984;5.088;2023-11-21T03:20:04;11.30;83.00
69626;DHT22;56847;51.984;5.088;2023-11-21T03:22:32;11.40;82.90
69626;DHT22;56847;51.984;5.088;2023-11-21T03:25:00;11.40;82.90
69626;DHT22;56847;51.984;5.088;2023-11-21T03:27:34;11.40;82.90
69626;DHT22;56847;51.984;5.088;2023-11-21T03:30:01;11.40;82.90
69626;DHT22;56847;51.984;5.088;2023-11-21T03:32:30;11.50;82.80
69626;DHT22;56847;51.984;5.088;2023-11-21T03:34:59;11.50;82.80
69626;DHT22;56847;51.984;5.088;2023-11-21T03:37:28;11.50;82.80
69626;DHT22;56847;51.984;5.088;2023-11-21T03:39:56;11.50;82.70
69626;DHT22;56847;51.984;5.088;2023-11-21T03:42:24;11.50;82.70
69626;DHT22;56847;51.984;5.088;2023-11-21T03:44:53;11.50;82.70
69626;DHT22;56847;51.984;5.088;2023-11-21T03:47:20;11.50;82.70
69626;DHT22;56847;51.984;5.088;2023-11-21T03:49:47;11.50;82.70
69626;DHT22;56847;51.984;5.088;2023-11-21T03:52:15;11.50;82.70
69626;DHT22;56847;51.984;5.088;2023-11-21T03:54:42;11.50;82.60
69626;DHT22;56847;51.984;5.088;2023-11-21T03:57:10;11.50;82.60
69626;DHT22;56847;51.984;5.088;2023-11-21T03:59:42;11.50;82.60
69626;DHT22;56847;51.984;5.088;2023-11-21T04:02:09;11.50;82.70
69626;DHT22;56847;51.984;5.088;2023-11-21T04:04:36;11.50;82.70
69626;DHT22;56847;51.984;5.088;2023-11-21T04:07:04;11.50;82.70
69626;DHT22;56847;51.984;5.088;2023-11-21T04:09:31;11.50;82.60
69626;DHT22;56847;51.984;5.088;2023-11-21T04:11:58;11.50;82.70
69626;DHT22;56847;51.984;5.088;2023-11-21T04:14:25;11.50;82.70
69626;DHT22;56847;51.984;5.088;2023-11-21T04:16:52;11.50;82.70
69626;DHT22;56847;51.984;5.088;2023-11-21T04:19:20;11.40;82.70
69626;DHT22;56847;51.984;5.088;2023-11-21T04:21:47;11.40;82.60
69626;DHT22;56847;51.984;5.088;2023-11-21T04:24:14;11.40;82.50
69626;DHT22;56847;51.984;5.088;2023-11-21T04:26:41;11.40;82.60
69626;DHT22;56847;51.984;5.088;2023-11-21T04:29:08;11.40;82.60
69626;DHT22;56847;51.984;5.088;2023-11-21T04:31:35;11.40;82.60
69626;DHT22;56847;51.984;5.088;2023-11-21T04:34:02;11.50;82.70
69626;DHT22;56847;51.984;5.088;2023-11-21T04:36:30;11.50;82.70
69626;DHT22;56847;51.984;5.088;2023-11-21T04:38:58;11.50;82.80
69626;DHT22;56847;51.984;5.088;2023-11-21T04:41:25;11.50;82.80
69626;DHT22;56847;51.984;5.088;2023-11-21T04:43:51;11.50;82.90
69626;DHT22;56847;51.984;5.088;2023-11-21T04:46:18;11.60;82.90
69626;DHT22;56847;51.984;5.088;2023-11-21T04:48:45;11.60;83.00
69626;DHT22;56847;51.984;5.088;2023-11-21T04:51:12;11.60;82.90
69626;DHT22;56847;51.984;5.088;2023-11-21T04:53:39;11.70;83.00
69626;DHT22;56847;51.984;5.088;2023-11-21T04:56:06;11.70;83.00
69626;DHT22;56847;51.984;5.088;2023-11-21T04:58:33;11.70;83.00
69626;DHT22;56847;51.984;5.088;2023-11-21T05:01:00;11.70;82.90
69626;DHT22;56847;51.984;5.088;2023-11-21T05:03:27;11.80;82.90
69626;DHT22;56847;51.984;5.088;2023-11-21T05:05:56;11.80;83.00
69626;DHT22;56847;51.984;5.088;2023-11-21T05:08:23;11.80;83.00
69626;DHT22;56847;51.984;5.088;2023-11-21T05:10:50;11.90;82.90
69626;DHT22;56847;51.984;5.088;2023-11-21T05:13:18;11.90;82.90
69626;DHT22;56847;51.984;5.088;2023-11-21T05:15:46;11.90;82.90
69626;DHT22;56847;51.984;5.088;2023-11-21T05:18:13;11.90;82.90
69626;DHT22;56847;51.984;5.088;2023-11-21T05:20:41;12.00;82.90
69626;DHT22;56847;51.984;5.088;2023-11-21T05:23:08;12.00;82.90
69626;DHT22;56847;51.984;5.088;2023-11-21T05:25:35;12.00;83.00
69626;DHT22;56847;51.984;5.088;2023-11-21T05:28:06;12.00;83.00
69626;DHT22;56847;51.984;5.088;2023-11-21T05:30:33;12.00;83.00
69626;DHT22;56847;51.984;5.088;2023-11-21T05:33:00;12.00;83.10
69626;DHT22;56847;51.984;5.088;2023-11-21T05:35:27;12.00;83.10
69626;DHT22;56847;51.984;5.088;2023-11-21T05:37:54;12.00;83.10
69626;DHT22;56847;51.984;5.088;2023-11-21T05:40:21;12.00;83.30
69626;DHT22;56847;51.984;5.088;2023-11-21T05:42:50;12.00;83.30
69626;DHT22;56847;51.984;5.088;2023-11-21T05:45:18;12.00;83.30
69626;DHT22;56847;51.984;5.088;2023-11-21T05:47:46;12.00;83.40
69626;DHT22;56847;51.984;5.088;2023-11-21T05:50:15;12.00;83.30
69626;DHT22;56847;51.984;5.088;2023-11-21T05:52:44;12.00;83.30
69626;DHT22;56847;51.984;5.088;2023-11-21T05:55:12;12.00;83.40
69626;DHT22;56847;51.984;5.088;2023-11-21T05:57:43;12.00;83.50
69626;DHT22;56847;51.984;5.088;2023-11-21T06:00:12;12.00;83.50
69626;DHT22;56847;51.984;5.088;2023-11-21T06:02:49;12.00;83.60
69626;DHT22;56847;51.984;5.088;2023-11-21T06:05:24;12.10;83.60
69626;DHT22;56847;51.984;5.088;2023-11-21T06:07:56;12.10;83.70
69626;DHT22;56847;51.984;5.088;2023-11-21T06:10:26;12.10;83.70
69626;DHT22;56847;51.984;5.088;2023-11-21T06:12:53;12.10;83.80
69626;DHT22;56847;51.984;5.088;2023-11-21T06:15:20;12.10;83.90
69626;DHT22;56847;51.984;5.088;2023-11-21T06:17:49;12.10;84.00
69626;DHT22;56847;51.984;5.088;2023-11-21T06:20:19;12.20;84.00
69626;DHT22;56847;51.984;5.088;2023-11-21T06:22:48;12.20;84.00
69626;DHT22;56847;51.984;5.088;2023-11-21T06:25:16;12.20;84.00
69626;DHT22;56847;51.984;5.088;2023-11-21T06:27:45;12.20;84.00
69626;DHT22;56847;51.984;5.088;2023-11-21T06:30:13;12.20;84.10
69626;DHT22;56847;51.984;5.088;2023-11-21T06:32:42;12.30;84.20
69626;DHT22;56847;51.984;5.088;2023-11-21T06:35:14;12.20;84.10
69626;DHT22;56847;51.984;5.088;2023-11-21T06:37:43;12.20;84.20
69626;DHT22;56847;51.984;5.088;2023-11-21T06:40:17;12.20;84.20
69626;DHT22;56847;51.984;5.088;2023-11-21T06:42:46;12.30;84.30
69626;DHT22;56847;51.984;5.088;2023-11-21T06:45:14;12.30;84.20
69626;DHT22;56847;51.984;5.088;2023-11-21T06:47:42;12.30;84.10
69626;DHT22;56847;51.984;5.088;2023-11-21T06:50:09;12.30;84.10
69626;DHT22;56847;51.984;5.088;2023-11-21T06:52:36;12.30;84.00
69626;DHT22;56847;51.984;5.088;2023-11-21T06:55:03;12.30;84.00
69626;DHT22;56847;51.984;5.088;2023-11-21T06:57:31;12.30;83.80
69626;DHT22;56847;51.984;5.088;2023-11-21T06:59:58;12.20;83.90
69626;DHT22;56847;51.984;5.088;2023-11-21T07:02:25;12.20;84.00
69626;DHT22;56847;51.984;5.088;2023-11-21T07:04:52;12.20;84.10
69626;DHT22;56847;51.984;5.088;2023-11-21T07:07:19;12.20;84.10
69626;DHT22;56847;51.984;5.088;2023-11-21T07:09:46;12.30;84.20
69626;DHT22;56847;51.984;5.088;2023-11-21T07:12:14;12.30;84.30
69626;DHT22;56847;51.984;5.088;2023-11-21T07:14:41;12.30;84.30
69626;DHT22;56847;51.984;5.088;2023-11-21T07:17:11;12.30;84.40
69626;DHT22;56847;51.984;5.088;2023-11-21T07:19:39;12.30;84.50
69626;DHT22;56847;51.984;5.088;2023-11-21T07:22:06;12.30;84.50
69626;DHT22;56847;51.984;5.088;2023-11-21T07:24:33;12.40;84.50
69626;DHT22;56847;51.984;5.088;2023-11-21T07:27:00;12.40;84.50
69626;DHT22;56847;51.984;5.088;2023-11-21T07:29:27;12.40;84.60
69626;DHT22;56847;51.984;5.088;2023-11-21T07:31:56;12.40;84.60
69626;DHT22;56847;51.984;5.088;2023-11-21T07:34:23;12.40;84.70
69626;DHT22;56847;51.984;5.088;2023-11-21T07:36:50;12.40;84.80
69626;DHT22;56847;51.984;5.088;2023-11-21T07:39:18;12.40;84.90
69626;DHT22;56847;51.984;5.088;2023-11-21T07:41:44;12.50;84.90
69626;DHT22;56847;51.984;5.088;2023-11-21T07:44:16;12.50;84.90
69626;DHT22;56847;51.984;5.088;2023-11-21T07:46:48;12.50;84.90
69626;DHT22;56847;51.984;5.088;2023-11-21T07:49:16;12.60;85.00
69626;DHT22;56847;51.984;5.088;2023-11-21T07:51:47;12.60;85.10
69626;DHT22;56847;51.984;5.088;2023-11-21T07:54:14;12.60;85.00
69626;DHT22;56847;51.984;5.088;2023-11-21T07:56:42;12.70;85.20
69626;DHT22;56847;51.984;5.088;2023-11-21T07:59:09;12.70;85.10
69626;DHT22;56847;51.984;5.088;2023-11-21T08:01:36;12.70;85.20
69626;DHT22;56847;51.984;5.088;2023-11-21T08:04:03;12.80;85.10
69626;DHT22;56847;51.984;5.088;2023-11-21T08:06:31;12.80;85.10
69626;DHT22;56847;51.984;5.088;2023-11-21T08:08:59;12.80;85.10
69626;DHT22;56847;51.984;5.088;2023-11-21T08:11:26;12.80;85.20
69626;DHT22;56847;51.984;5.088;2023-11-21T08:13:55;12.80;85.50
69626;DHT22;56847;51.984;5.088;2023-11-21T08:16:23;12.90;85.30
69626;DHT22;56847;51.984;5.088;2023-11-21T08:18:51;12.90;85.20
69626;DHT22;56847;51.984;5.088;2023-11-21T08:21:18;13.00;85.20
69626;DHT22;56847;51.984;5.088;2023-11-21T08:23:45;13.00;85.10
69626;DHT22;56847;51.984;5.088;2023-11-21T08:26:16;13.00;85.10
69626;DHT22;56847;51.984;5.088;2023-11-21T08:28:43;13.00;85.10
69626;DHT22;56847;51.984;5.088;2023-11-21T08:31:10;13.00;85.10
69626;DHT22;56847;51.984;5.088;2023-11-21T08:33:39;13.00;85.10
69626;DHT22;56847;51.984;5.088;2023-11-21T08:36:08;13.00;85.20
69626;DHT22;56847;51.984;5.088;2023-11-21T08:38:36;13.10;85.40
69626;DHT22;56847;51.984;5.088;2023-11-21T08:41:06;13.10;85.50
69626;DHT22;56847;51.984;5.088;2023-11-21T08:43:37;13.10;85.50
69626;DHT22;56847;51.984;5.088;2023-11-21T08:46:07;13.20;85.60
69626;DHT22;56847;51.984;5.088;2023-11-21T08:48:37;13.20;85.40
69626;DHT22;56847;51.984;5.088;2023-11-21T08:51:04;13.20;85.50
69626;DHT22;56847;51.984;5.088;2023-11-21T08:53:32;13.30;85.60
69626;DHT22;56847;51.984;5.088;2023-11-21T08:55:59;13.30;86.00
69626;DHT22;56847;51.984;5.088;2023-11-21T08:58:27;13.50;86.00
69626;DHT22;56847;51.984;5.088;2023-11-21T09:00:54;13.60;86.10
69626;DHT22;56847;51.984;5.088;2023-11-21T09:03:21;13.70;85.70
69626;DHT22;56847;51.984;5.088;2023-11-21T09:05:48;13.70;85.60
69626;DHT22;56847;51.984;5.088;2023-11-21T09:08:15;13.80;85.70
69626;DHT22;56847;51.984;5.088;2023-11-21T09:10:42;13.90;85.70
69626;DHT22;56847;51.984;5.088;2023-11-21T09:13:10;14.00;85.70
69626;DHT22;56847;51.984;5.088;2023-11-21T09:15:37;14.00;85.70
69626;DHT22;56847;51.984;5.088;2023-11-21T09:18:04;14.10;85.50
69626;DHT22;56847;51.984;5.088;2023-11-21T09:20:31;14.20;85.60
69626;DHT22;56847;51.984;5.088;2023-11-21T09:22:58;14.30;85.30
69626;DHT22;56847;51.984;5.088;2023-11-21T09:25:25;14.30;85.00
69626;DHT22;56847;51.984;5.088;2023-11-21T09:27:55;14.30;85.00
69626;DHT22;56847;51.984;5.088;2023-11-21T09:30:24;14.40;85.00
69626;DHT22;56847;51.984;5.088;2023-11-21T09:32:51;14.40;84.70
69626;DHT22;56847;51.984;5.088;2023-11-21T09:35:18;14.40;84.50
69626;DHT22;56847;51.984;5.088;2023-11-21T09:37:45;14.40;84.50
69626;DHT22;56847;51.984;5.088;2023-11-21T09:40:21;14.40;84.50
69626;DHT22;56847;51.984;5.088;2023-11-21T09:42:54;14.30;84.30
69626;DHT22;56847;51.984;5.088;2023-11-21T09:47:56;14.30;84.50
69626;DHT22;56847;51.984;5.088;2023-11-21T09:50:24;14.30;84.40
69626;DHT22;56847;51.984;5.088;2023-11-21T09:55:46;14.20;84.30
69626;DHT22;56847;51.984;5.088;2023-11-21T09:58:14;14.10;84.30
69626;DHT22;56847;51.984;5.088;2023-11-21T10:00:45;14.10;84.40
69626;DHT22;56847;51.984;5.088;2023-11-21T10:03:13;14.10;84.60
69626;DHT22;56847;51.984;5.088;2023-11-21T10:05:44;14.10;84.80
69626;DHT22;56847;51.984;5.088;2023-11-21T10:08:14;14.20;84.70
69626;DHT22;56847;51.984;5.088;2023-11-21T10:10:46;14.20;84.60
69626;DHT22;56847;51.984;5.088;2023-11-21T10:13:15;14.20;84.80
69626;DHT22;56847;51.984;5.088;2023-11-21T10:15:50;14.20;84.80
69626;DHT22;56847;51.984;5.088;2023-11-21T10:18:18;14.30;84.70
69626;DHT22;56847;51.984;5.088;2023-11-21T10:20:46;14.30;84.50
69626;DHT22;56847;51.984;5.088;2023-11-21T10:23:21;14.30;84.60
69626;DHT22;56847;51.984;5.088;2023-11-21T10:25:51;14.30;84.40
69626;DHT22;56847;51.984;5.088;2023-11-21T10:28:19;14.30;84.40
69626;DHT22;56847;51.984;5.088;2023-11-21T10:30:47;14.30;84.40
69626;DHT22;56847;51.984;5.088;2023-11-21T10:33:14;14.30;84.40
69626;DHT22;56847;51.984;5.088;2023-11-21T10:38:08;14.30;84.20
69626;DHT22;56847;51.984;5.088;2023-11-21T10:40:41;14.30;84.20
69626;DHT22;56847;51.984;5.088;2023-11-21T10:43:09;14.30;84.20
69626;DHT22;56847;51.984;5.088;2023-11-21T10:45:40;14.30;84.00
69626;DHT22;56847;51.984;5.088;2023-11-21T10:48:14;14.20;83.90
69626;DHT22;56847;51.984;5.088;2023-11-21T10:50:46;14.20;83.90
69626;DHT22;56847;51.984;5.088;2023-11-21T10:53:13;14.20;83.90
69626;DHT22;56847;51.984;5.088;2023-11-21T10:55:41;14.10;83.80
69626;DHT22;56847;51.984;5.088;2023-11-21T10:58:09;14.10;83.80
69626;DHT22;56847;51.984;5.088;2023-11-21T11:00:38;14.00;83.70
69626;DHT22;56847;51.984;5.088;2023-11-21T11:03:07;13.90;83.80
69626;DHT22;56847;51.984;5.088;2023-11-21T11:05:43;13.90;83.80
69626;DHT22;56847;51.984;5.088;2023-11-21T11:08:21;13.90;84.00
69626;DHT22;56847;51.984;5.088;2023-11-21T11:10:53;13.90;84.00
69626;DHT22;56847;51.984;5.088;2023-11-21T11:13:21;13.90;84.10
69626;DHT22;56847;51.984;5.088;2023-11-21T11:15:48;13.90;84.40
69626;DHT22;56847;51.984;5.088;2023-11-21T11:18:16;14.00;84.50
69626;DHT22;56847;51.984;5.088;2023-11-21T11:20:45;14.10;84.20
69626;DHT22;56847;51.984;5.088;2023-11-21T11:23:27;14.10;84.00
69626;DHT22;56847;51.984;5.088;2023-11-21T11:26:35;14.10;83.90
69626;DHT22;56847;51.984;5.088;2023-11-21T11:29:16;14.00;83.60
69626;DHT22;56847;51.984;5.088;2023-11-21T11:35:12;14.00;83.70
69626;DHT22;56847;51.984;5.088;2023-11-21T11:37:44;13.90;83.70
69626;DHT22;56847;51.984;5.088;2023-11-21T11:40:12;13.90;83.80
69626;DHT22;56847;51.984;5.088;2023-11-21T11:42:39;13.90;83.70
69626;DHT22;56847;51.984;5.088;2023-11-21T11:45:19;13.90;83.70
69626;DHT22;56847;51.984;5.088;2023-11-21T11:47:47;13.90;83.70
69626;DHT22;56847;51.984;5.088;2023-11-21T11:50:15;13.80;83.70
69626;DHT22;56847;51.984;5.088;2023-11-21T11:52:47;13.80;83.60
69626;DHT22;56847;51.984;5.088;2023-11-21T11:55:15;13.80;83.60
69626;DHT22;56847;51.984;5.088;2023-11-21T11:57:50;13.70;83.70
69626;DHT22;56847;51.984;5.088;2023-11-21T12:02:53;13.70;83.80
69626;DHT22;56847;51.984;5.088;2023-11-21T12:05:21;13.70;84.00
69626;DHT22;56847;51.984;5.088;2023-11-21T12:07:51;13.70;84.00
69626;DHT22;56847;51.984;5.088;2023-11-21T12:10:24;13.80;84.10
69626;DHT22;56847;51.984;5.088;2023-11-21T12:12:59;13.80;83.90
69626;DHT22;56847;51.984;5.088;2023-11-21T12:15:26;13.80;83.90
69626;DHT22;56847;51.984;5.088;2023-11-21T12:17:56;13.90;84.00
69626;DHT22;56847;51.984;5.088;2023-11-21T12:20:23;13.90;83.90
69626;DHT22;56847;51.984;5.088;2023-11-21T12:22:52;13.90;83.70
69626;DHT22;56847;51.984;5.088;2023-11-21T12:25:21;14.00;83.90
69626;DHT22;56847;51.984;5.088;2023-11-21T12:27:50;14.10;84.20
69626;DHT22;56847;51.984;5.088;2023-11-21T12:30:25;14.10;83.90
69626;DHT22;56847;51.984;5.088;2023-11-21T12:32:55;14.20;83.70
69626;DHT22;56847;51.984;5.088;2023-11-21T12:35:24;14.20;83.50
69626;DHT22;56847;51.984;5.088;2023-11-21T12:37:52;14.10;83.40
69626;DHT22;56847;51.984;5.088;2023-11-21T12:40:20;14.10;83.40
69626;DHT22;56847;51.984;5.088;2023-11-21T12:42:54;14.10;83.20
69626;DHT22;56847;51.984;5.088;2023-11-21T12:45:23;14.10;82.90
69626;DHT22;56847;51.984;5.088;2023-11-21T12:47:55;14.00;82.90
69626;DHT22;56847;51.984;5.088;2023-11-21T12:50:28;14.00;83.00
69626;DHT22;56847;51.984;5.088;2023-11-21T12:53:14;14.00;83.00
69626;DHT22;56847;51.984;5.088;2023-11-21T12:55:44;14.00;83.00
69626;DHT22;56847;51.984;5.088;2023-11-21T12:58:17;13.90;83.10
69626;DHT22;56847;51.984;5.088;2023-11-21T13:00:47;13.90;83.20
69626;DHT22;56847;51.984;5.088;2023-11-21T13:03:15;13.90;83.20
69626;DHT22;56847;51.984;5.088;2023-11-21T13:05:53;13.90;83.20
69626;DHT22;56847;51.984;5.088;2023-11-21T13:08:25;13.90;83.20
69626;DHT22;56847;51.984;5.088;2023-11-21T13:10:53;13.90;83.00
69626;DHT22;56847;51.984;5.088;2023-11-21T13:13:23;13.90;83.00
69626;DHT22;56847;51.984;5.088;2023-11-21T13:15:56;13.90;82.90
69626;DHT22;56847;51.984;5.088;2023-11-21T13:18:24;13.90;83.40
69626;DHT22;56847;51.984;5.088;2023-11-21T13:20:58;13.90;83.70
69626;DHT22;56847;51.984;5.088;2023-11-21T13:23:26;14.10;84.00
69626;DHT22;56847;51.984;5.088;2023-11-21T13:25:54;14.20;84.00
69626;DHT22;56847;51.984;5.088;2023-11-21T13:28:34;14.30;83.70
69626;DHT22;56847;51.984;5.088;2023-11-21T13:31:03;14.40;83.30
69626;DHT22;56847;51.984;5.088;2023-11-21T13:33:38;14.40;83.10
69626;DHT22;56847;51.984;5.088;2023-11-21T13:36:08;14.40;82.80
69626;DHT22;56847;51.984;5.088;2023-11-21T13:38:37;14.40;82.60
69626;DHT22;56847;51.984;5.088;2023-11-21T13:41:10;14.40;82.60
69626;DHT22;56847;51.984;5.088;2023-11-21T13:43:39;14.30;82.00
69626;DHT22;56847;51.984;5.088;2023-11-21T13:46:06;14.30;82.10
69626;DHT22;56847;51.984;5.088;2023-11-21T13:48:43;14.30;82.30
69626;DHT22;56847;51.984;5.088;2023-11-21T13:51:18;14.30;82.10
69626;DHT22;56847;51.984;5.088;2023-11-21T13:53:46;14.30;82.10
69626;DHT22;56847;51.984;5.088;2023-11-21T13:56:16;14.30;81.90
69626;DHT22;56847;51.984;5.088;2023-11-21T13:58:47;14.30;81.90
69626;DHT22;56847;51.984;5.088;2023-11-21T14:01:28;14.30;81.90
69626;DHT22;56847;51.984;5.088;2023-11-21T14:04:00;14.20;81.80
69626;DHT22;56847;51.984;5.088;2023-11-21T14:06:52;14.20;81.70
69626;DHT22;56847;51.984;5.088;2023-11-21T14:09:23;14.10;81.70
69626;DHT22;56847;51.984;5.088;2023-11-21T14:11:56;14.10;81.80
69626;DHT22;56847;51.984;5.088;2023-11-21T14:14:27;14.00;81.50
69626;DHT22;56847;51.984;5.088;2023-11-21T14:16:55;14.00;81.50
69626;DHT22;56847;51.984;5.088;2023-11-21T14:19:26;14.00;81.60
69626;DHT22;56847;51.984;5.088;2023-11-21T14:21:59;13.90;81.50
69626;DHT22;56847;51.984;5.088;2023-11-21T14:24:27;13.90;81.50
69626;DHT22;56847;51.984;5.088;2023-11-21T14:26:56;13.80;81.30
69626;DHT22;56847;51.984;5.088;2023-11-21T14:29:23;13.70;81.50
69626;DHT22;56847;51.984;5.088;2023-11-21T14:31:50;13.60;81.60
69626;DHT22;56847;51.984;5.088;2023-11-21T14:34:20;13.60;81.90
69626;DHT22;56847;51.984;5.088;2023-11-21T14:36:52;13.50;82.10
69626;DHT22;56847;51.984;5.088;2023-11-21T14:39:19;13.50;82.10
69626;DHT22;56847;51.984;5.088;2023-11-21T14:41:57;13.50;82.30
69626;DHT22;56847;51.984;5.088;2023-11-21T14:44:26;13.50;82.50
69626;DHT22;56847;51.984;5.088;2023-11-21T14:46:56;13.60;82.60
69626;DHT22;56847;51.984;5.088;2023-11-21T14:49:25;13.60;82.30
69626;DHT22;56847;51.984;5.088;2023-11-21T14:51:55;13.60;82.20
69626;DHT22;56847;51.984;5.088;2023-11-21T14:54:31;13.60;82.10
69626;DHT22;56847;51.984;5.088;2023-11-21T14:57:12;13.50;82.30
69626;DHT22;56847;51.984;5.088;2023-11-21T14:59:45;13.50;82.20
69626;DHT22;56847;51.984;5.088;2023-11-21T15:02:19;13.50;82.00
69626;DHT22;56847;51.984;5.088;2023-11-21T15:05:07;13.50;81.90
69626;DHT22;56847;51.984;5.088;2023-11-21T15:07:35;13.40;81.70
69626;DHT22;56847;51.984;5.088;2023-11-21T15:10:03;13.30;81.70
69626;DHT22;56847;51.984;5.088;2023-11-21T15:12:30;13.30;81.70
69626;DHT22;56847;51.984;5.088;2023-11-21T15:15:00;13.20;81.90
69626;DHT22;56847;51.984;5.088;2023-11-21T15:17:28;13.20;82.00
69626;DHT22;56847;51.984;5.088;2023-11-21T15:19:58;13.20;82.00
69626;DHT22;56847;51.984;5.088;2023-11-21T15:22:28;13.10;81.90
69626;DHT22;56847;51.984;5.088;2023-11-21T15:24:55;13.10;81.70
69626;DHT22;56847;51.984;5.088;2023-11-21T15:27:22;13.10;81.60
69626;DHT22;56847;51.984;5.088;2023-11-21T15:29:51;13.10;81.80
69626;DHT22;56847;51.984;5.088;2023-11-21T15:32:17;13.10;81.80
69626;DHT22;56847;51.984;5.088;2023-11-21T15:34:44;13.00;81.60
69626;DHT22;56847;51.984;5.088;2023-11-21T15:37:13;13.00;81.70
69626;DHT22;56847;51.984;5.088;2023-11-21T15:39:40;13.00;81.60
69626;DHT22;56847;51.984;5.088;2023-11-21T15:42:08;13.00;81.70
69626;DHT22;56847;51.984;5.088;2023-11-21T15:44:36;13.00;81.70
69626;DHT22;56847;51.984;5.088;2023-11-21T15:47:04;12.90;81.70
69626;DHT22;56847;51.984;5.088;2023-11-21T15:49:31;12.90;81.60
69626;DHT22;56847;51.984;5.088;2023-11-21T15:52:06;12.90;81.60
69626;DHT22;56847;51.984;5.088;2023-11-21T15:54:35;12.90;81.40
69626;DHT22;56847;51.984;5.088;2023-11-21T15:57:04;12.90;81.60